createdAt,value
2023-02-16T00:01:51.310Z,-5.24
2023-02-16T00:04:26.811Z,-5.24
2023-02-16T00:06:54.628Z,-5.24
2023-02-16T00:09:22.825Z,-5.19
2023-02-16T00:12:08.782Z,-5.20
2023-02-16T00:14:37.466Z,-5.19
2023-02-16T00:17:05.077Z,-5.15
2023-02-16T00:19:38.864Z,-5.08
2023-02-16T00:22:11.528Z,-5.12
2023-02-16T00:24:38.828Z,-5.16
2023-02-16T00:27:16.179Z,-5.25
2023-02-16T00:29:48.365Z,-5.30
2023-02-16T00:32:15.527Z,-5.27
2023-02-16T00:34:44.494Z,-5.24
2023-02-16T00:37:13.352Z,-5.28
2023-02-16T00:39:45.787Z,-5.28
2023-02-16T00:42:18.517Z,-5.32
2023-02-16T00:44:52.424Z,-5.28
2023-02-16T00:47:27.896Z,-5.27
2023-02-16T00:49:59.647Z,-5.32
2023-02-16T00:52:29.847Z,-5.37
2023-02-16T00:54:58.789Z,-5.40
2023-02-16T00:57:26.602Z,-5.41
2023-02-16T01:00:01.858Z,-5.51
2023-02-16T01:02:31.257Z,-5.60
2023-02-16T01:05:00.264Z,-5.57
2023-02-16T01:07:45.836Z,-5.52
2023-02-16T01:10:31.422Z,-5.49
2023-02-16T01:12:59.736Z,-5.52
2023-02-16T01:15:27.375Z,-5.50
2023-02-16T01:17:54.394Z,-5.51
2023-02-16T01:20:24.768Z,-5.54
2023-02-16T01:22:53.896Z,-5.47
2023-02-16T01:25:20.869Z,-5.46
2023-02-16T01:27:48.167Z,-5.40
2023-02-16T01:30:19.623Z,-5.39
2023-02-16T01:32:51.908Z,-5.39
2023-02-16T01:35:29.788Z,-5.43
2023-02-16T01:37:57.205Z,-5.44
2023-02-16T01:40:39.219Z,-5.43
2023-02-16T01:43:21.178Z,-5.43
2023-02-16T01:46:09.367Z,-5.45
2023-02-16T01:48:39.165Z,-5.48
2023-02-16T01:51:28.186Z,-5.43
2023-02-16T01:54:11.178Z,-5.45
2023-02-16T01:56:48.111Z,-5.47
2023-02-16T01:59:15.862Z,-5.52
2023-02-16T02:02:02.606Z,-5.55
2023-02-16T02:04:54.196Z,-5.58
2023-02-16T02:07:27.297Z,-5.61
2023-02-16T02:10:08.922Z,-5.61
2023-02-16T02:12:51.115Z,-5.67
2023-02-16T02:15:23.068Z,-5.68
2023-02-16T02:17:50.375Z,-5.73
2023-02-16T02:20:48.385Z,-5.73
2023-02-16T02:23:35.779Z,-5.74
2023-02-16T02:26:13.642Z,-5.76
2023-02-16T02:28:59.349Z,-5.78
2023-02-16T02:31:46.106Z,-5.80
2023-02-16T02:34:36.060Z,-5.76
2023-02-16T02:37:03.134Z,-5.73
2023-02-16T02:39:39.723Z,-5.68
2023-02-16T02:42:26.133Z,-5.65
2023-02-16T02:45:03.551Z,-5.68
2023-02-16T02:47:43.608Z,-5.68
2023-02-16T02:50:32.525Z,-5.67
2023-02-16T02:53:02.449Z,-5.63
2023-02-16T02:55:52.318Z,-5.63
2023-02-16T02:58:40.166Z,-5.74
2023-02-16T03:01:09.501Z,-5.75
2023-02-16T03:03:41.382Z,-5.77
2023-02-16T03:06:12.895Z,-5.86
2023-02-16T03:08:41.746Z,-5.90
2023-02-16T03:11:31.697Z,-5.96
2023-02-16T03:14:03.957Z,-5.92
2023-02-16T03:16:46.186Z,-5.86
2023-02-16T03:19:33.565Z,-5.83
2023-02-16T03:22:19.674Z,-5.85
2023-02-16T03:25:05.569Z,-5.99
2023-02-16T03:27:55.370Z,-6.02
2023-02-16T03:30:23.890Z,-6.03
2023-02-16T03:32:51.175Z,-6.09
2023-02-16T03:35:18.321Z,-6.05
2023-02-16T03:37:45.394Z,-6.09
2023-02-16T03:40:31.170Z,-6.08
2023-02-16T03:42:59.508Z,-6.08
2023-02-16T03:45:26.628Z,-6.13
2023-02-16T03:47:54.418Z,-6.09
2023-02-16T03:50:21.755Z,-6.09
2023-02-16T03:52:49.170Z,-6.05
2023-02-16T03:55:16.610Z,-6.03
2023-02-16T03:57:43.591Z,-6.06
2023-02-16T04:00:11.474Z,-6.02
2023-02-16T04:02:41.612Z,-6.06
2023-02-16T04:05:10.414Z,-6.04
2023-02-16T04:07:41.184Z,-6.05
2023-02-16T04:10:08.340Z,-6.06
2023-02-16T04:12:38.441Z,-6.15
2023-02-16T04:15:12.724Z,-6.14
2023-02-16T04:17:41.327Z,-6.24
2023-02-16T04:20:12.399Z,-6.26
2023-02-16T04:22:40.491Z,-6.26
2023-02-16T04:25:08.908Z,-6.31
2023-02-16T04:27:38.358Z,-6.25
2023-02-16T04:30:07.665Z,-6.24
2023-02-16T04:32:34.966Z,-6.25
2023-02-16T04:35:02.159Z,-6.26
2023-02-16T04:37:32.647Z,-6.27
2023-02-16T04:40:03.177Z,-6.23
2023-02-16T04:42:30.969Z,-6.25
2023-02-16T04:44:58.501Z,-6.22
2023-02-16T04:47:30.520Z,-6.17
2023-02-16T04:49:57.571Z,-6.11
2023-02-16T04:52:24.604Z,-6.07
2023-02-16T04:54:55.159Z,-6.09
2023-02-16T04:57:24.327Z,-6.12
2023-02-16T04:59:51.672Z,-6.07
2023-02-16T05:02:18.630Z,-6.03
2023-02-16T05:04:45.749Z,-6.04
2023-02-16T05:07:13.666Z,-5.99
2023-02-16T05:09:40.822Z,-5.98
2023-02-16T05:12:27.577Z,-6.03
2023-02-16T05:14:54.696Z,-6.00
2023-02-16T05:17:24.186Z,-6.04
2023-02-16T05:19:54.859Z,-5.94
2023-02-16T05:22:21.920Z,-5.94
2023-02-16T05:24:49.608Z,-5.98
2023-02-16T05:27:37.227Z,-6.02
2023-02-16T05:30:04.775Z,-6.02
2023-02-16T05:32:32.056Z,-5.93
2023-02-16T05:34:59.346Z,-5.89
2023-02-16T05:37:27.406Z,-5.92
2023-02-16T05:39:54.674Z,-5.90
2023-02-16T05:42:22.125Z,-5.84
2023-02-16T05:44:49.109Z,-5.89
2023-02-16T05:47:16.185Z,-5.92
2023-02-16T05:49:43.681Z,-5.89
2023-02-16T05:52:17.771Z,-5.91
2023-02-16T05:54:46.151Z,-5.95
2023-02-16T05:57:13.076Z,-5.88
2023-02-16T05:59:45.066Z,-5.84
2023-02-16T06:02:12.100Z,-5.80
2023-02-16T06:04:39.161Z,-5.75
2023-02-16T06:07:06.175Z,-5.66
2023-02-16T06:09:34.917Z,-5.61
2023-02-16T06:12:11.267Z,-5.52
2023-02-16T06:14:38.211Z,-5.43
2023-02-16T06:17:05.207Z,-5.40
2023-02-16T06:19:32.606Z,-5.36
2023-02-16T06:22:03.458Z,-5.33
2023-02-16T06:24:35.281Z,-5.27
2023-02-16T06:29:44.350Z,-5.18
2023-02-16T06:32:11.504Z,-5.17
2023-02-16T06:34:41.845Z,-5.09
2023-02-16T06:37:11.970Z,-5.04
2023-02-16T06:39:39.060Z,-5.03
2023-02-16T06:42:06.030Z,-5.02
2023-02-16T06:44:33.295Z,-5.05
2023-02-16T06:47:01.415Z,-5.02
2023-02-16T06:49:29.563Z,-4.95
2023-02-16T06:51:56.655Z,-4.96
2023-02-16T06:54:23.676Z,-4.95
2023-02-16T06:56:51.377Z,-4.91
2023-02-16T06:59:21.418Z,-4.98
2023-02-16T07:01:48.726Z,-4.94
2023-02-16T07:04:15.899Z,-4.76
2023-02-16T07:06:43.002Z,-4.74
2023-02-16T07:09:11.615Z,-4.60
2023-02-16T07:11:42.593Z,-4.69
2023-02-16T07:14:09.896Z,-4.65
2023-02-16T07:16:36.948Z,-4.44
2023-02-16T07:19:04.305Z,-4.51
2023-02-16T07:21:34.763Z,-4.32
2023-02-16T07:24:05.577Z,-4.37
2023-02-16T07:26:35.318Z,-4.31
2023-02-16T07:29:02.584Z,-4.16
2023-02-16T07:31:29.915Z,-4.07
2023-02-16T07:33:57.019Z,-4.07
2023-02-16T07:36:24.165Z,-4.10
2023-02-16T07:38:51.907Z,-4.21
2023-02-16T07:41:18.966Z,-4.14
2023-02-16T07:43:45.862Z,-4.15
2023-02-16T07:46:15.561Z,-4.12
2023-02-16T07:48:42.907Z,-4.25
2023-02-16T07:51:10.340Z,-4.18
2023-02-16T07:53:38.137Z,-4.20
2023-02-16T07:56:09.124Z,-4.13
2023-02-16T07:58:37.052Z,-4.10
2023-02-16T08:01:10.371Z,-4.12
2023-02-16T08:03:39.202Z,-4.03
2023-02-16T08:06:07.716Z,-3.83
2023-02-16T08:08:35.646Z,-3.69
2023-02-16T08:11:18.373Z,-3.77
2023-02-16T08:13:46.289Z,-3.70
2023-02-16T08:16:18.278Z,-3.72
2023-02-16T08:18:45.530Z,-3.69
2023-02-16T08:21:16.271Z,-3.61
2023-02-16T08:23:47.758Z,-3.51
2023-02-16T08:26:17.501Z,-3.35
2023-02-16T08:28:50.306Z,-3.16
2023-02-16T08:31:23.711Z,-3.21
2023-02-16T08:33:52.226Z,-3.32
2023-02-16T08:36:23.708Z,-3.31
2023-02-16T08:38:52.909Z,-3.38
2023-02-16T08:41:21.806Z,-3.38
2023-02-16T08:43:49.344Z,-3.55
2023-02-16T08:46:17.795Z,-3.47
2023-02-16T08:48:45.402Z,-3.40
2023-02-16T08:51:17.806Z,-3.34
2023-02-16T08:53:46.774Z,-3.11
2023-02-16T08:56:24.392Z,-2.88
2023-02-16T08:58:57.892Z,-2.79
2023-02-16T09:01:25.446Z,-2.75
2023-02-16T09:03:52.793Z,-2.79
2023-02-16T09:06:21.666Z,-2.73
2023-02-16T09:08:57.025Z,-2.69
2023-02-16T09:11:25.761Z,-2.71
2023-02-16T09:13:53.515Z,-2.83
2023-02-16T09:16:27.755Z,-2.99
2023-02-16T09:18:56.226Z,-3.13
2023-02-16T09:21:25.961Z,-3.27
2023-02-16T09:23:55.965Z,-3.16
2023-02-16T09:26:24.235Z,-3.39
2023-02-16T09:28:51.928Z,-3.55
2023-02-16T09:31:28.538Z,-3.76
2023-02-16T09:34:05.484Z,-3.67
2023-02-16T09:36:32.657Z,-3.57
2023-02-16T09:39:00.180Z,-3.45
2023-02-16T09:41:58.709Z,-3.38
2023-02-16T09:44:38.170Z,-3.27
2023-02-16T09:47:11.864Z,-3.15
2023-02-16T09:49:42.418Z,-2.96
2023-02-16T09:52:09.325Z,-2.81
2023-02-16T09:54:55.681Z,-2.71
2023-02-16T09:57:28.838Z,-2.60
2023-02-16T10:00:02.269Z,-2.43
2023-02-16T10:02:32.306Z,-1.95
2023-02-16T10:05:19.150Z,-1.17
2023-02-16T10:08:03.518Z,-1.64
2023-02-16T10:10:40.065Z,-1.90
2023-02-16T10:13:34.245Z,-2.31
2023-02-16T10:16:04.039Z,-2.50
2023-02-16T10:18:41.594Z,-2.61
2023-02-16T10:21:15.626Z,-2.74
2023-02-16T10:23:43.128Z,-2.95
2023-02-16T10:26:21.609Z,-3.13
2023-02-16T10:28:51.373Z,-3.18
2023-02-16T10:31:43.565Z,-3.10
2023-02-16T10:34:17.003Z,-3.09
2023-02-16T10:37:02.297Z,-3.16
2023-02-16T10:39:48.013Z,-3.21
2023-02-16T10:42:27.450Z,-3.31
2023-02-16T10:45:15.519Z,-3.31
2023-02-16T10:47:44.035Z,-3.45
2023-02-16T10:50:25.648Z,-3.62
2023-02-16T10:52:57.961Z,-3.71
2023-02-16T10:55:35.473Z,-3.64
2023-02-16T10:58:02.939Z,-3.61
2023-02-16T11:01:04.744Z,-3.63
2023-02-16T11:03:38.754Z,-3.69
2023-02-16T11:06:17.587Z,-3.74
2023-02-16T11:08:52.091Z,-3.77
2023-02-16T11:11:19.388Z,-3.71
2023-02-16T11:13:50.126Z,-3.81
2023-02-16T11:16:25.452Z,-3.80
2023-02-16T11:19:00.173Z,-3.84
2023-02-16T11:22:01.168Z,-3.77
2023-02-16T11:24:34.909Z,-3.75
2023-02-16T11:27:07.777Z,-3.76
2023-02-16T11:29:35.635Z,-3.79
2023-02-16T11:32:08.827Z,-3.73
2023-02-16T11:34:41.415Z,-3.68
2023-02-16T11:37:34.740Z,-3.67
2023-02-16T11:40:17.291Z,-3.72
2023-02-16T11:42:53.321Z,-3.71
2023-02-16T11:45:30.315Z,-3.53
2023-02-16T11:48:10.123Z,-3.51
2023-02-16T11:50:38.981Z,-3.52
2023-02-16T11:53:12.480Z,-3.57
2023-02-16T11:55:46.905Z,-3.64
2023-02-16T11:58:29.561Z,-3.69
2023-02-16T12:01:00.309Z,-3.66
2023-02-16T12:03:43.535Z,-3.74
2023-02-16T12:06:26.786Z,-3.70
2023-02-16T12:09:00.300Z,-3.68
2023-02-16T12:11:51.544Z,-3.68
2023-02-16T12:14:32.551Z,-3.70
2023-02-16T12:17:07.616Z,-3.73
2023-02-16T12:19:43.726Z,-3.78
2023-02-16T12:22:34.071Z,-3.87
2023-02-16T12:25:26.575Z,-3.91
2023-02-16T12:28:10.192Z,-3.95
2023-02-16T12:30:45.012Z,-3.94
2023-02-16T12:33:41.826Z,-3.93
2023-02-16T12:36:40.970Z,-3.87
2023-02-16T12:39:16.875Z,-3.81
2023-02-16T12:42:04.517Z,-3.89
2023-02-16T12:44:42.172Z,-3.88
2023-02-16T12:47:13.830Z,-3.93
2023-02-16T12:49:53.725Z,-3.92
2023-02-16T12:52:43.521Z,-3.90
2023-02-16T12:55:19.327Z,-3.97
2023-02-16T12:57:59.796Z,-3.96
2023-02-16T13:00:48.056Z,-3.96
2023-02-16T13:03:16.069Z,-4.01
2023-02-16T13:05:44.871Z,-4.09
2023-02-16T13:08:39.387Z,-4.13
2023-02-16T13:11:12.104Z,-4.24
2023-02-16T13:13:42.926Z,-4.20
2023-02-16T13:16:30.573Z,-4.20
2023-02-16T13:18:58.816Z,-4.31
2023-02-16T13:21:29.040Z,-4.39
2023-02-16T13:24:40.779Z,-4.43
2023-02-16T13:27:45.662Z,-4.51
2023-02-16T13:30:51.359Z,-4.51
2023-02-16T13:33:27.741Z,-4.53
2023-02-16T13:36:25.757Z,-4.52
2023-02-16T13:39:08.069Z,-4.52
2023-02-16T13:41:53.363Z,-4.52
2023-02-16T13:44:24.515Z,-4.57
2023-02-16T13:46:53.961Z,-4.70
2023-02-16T13:49:43.404Z,-4.65
2023-02-16T13:52:27.304Z,-4.69
2023-02-16T13:54:57.156Z,-4.64
2023-02-16T13:58:04.777Z,-4.59
2023-02-16T14:00:38.610Z,-4.69
2023-02-16T14:03:35.304Z,-4.65
2023-02-16T14:06:32.636Z,-4.66
2023-02-16T14:09:14.631Z,-4.71
2023-02-16T14:11:53.644Z,-4.75
2023-02-16T14:14:43.650Z,-4.79
2023-02-16T14:17:19.762Z,-4.85
2023-02-16T14:19:56.417Z,-4.93
2023-02-16T14:22:55.484Z,-5.03
2023-02-16T14:25:33.140Z,-5.13
2023-02-16T14:28:23.340Z,-5.09
2023-02-16T14:30:56.444Z,-5.13
2023-02-16T14:33:37.854Z,-5.15
2023-02-16T14:36:18.469Z,-5.23
2023-02-16T14:38:47.551Z,-5.28
2023-02-16T14:41:25.190Z,-5.24
2023-02-16T14:43:56.396Z,-5.24
2023-02-16T14:46:30.726Z,-5.21
2023-02-16T14:49:07.857Z,-5.16
2023-02-16T14:51:53.524Z,-5.22
2023-02-16T14:55:15.141Z,-5.22
2023-02-16T14:57:51.984Z,-5.29
2023-02-16T15:00:51.783Z,-5.35
2023-02-16T15:03:23.465Z,-5.36
2023-02-16T15:06:04.184Z,-5.35
2023-02-16T15:09:08.192Z,-5.35
2023-02-16T15:12:02.014Z,-5.41
2023-02-16T15:14:55.129Z,-5.54
2023-02-16T15:17:27.170Z,-5.60
2023-02-16T15:19:56.296Z,-5.64
2023-02-16T15:22:26.594Z,-5.68
2023-02-16T15:25:04.600Z,-5.70
2023-02-16T15:27:33.206Z,-5.71
2023-02-16T15:30:26.201Z,-5.73
2023-02-16T15:33:23.147Z,-5.68
2023-02-16T15:36:01.779Z,-5.69
2023-02-16T15:38:35.889Z,-5.66
2023-02-16T15:41:08.691Z,-5.64
2023-02-16T15:43:47.744Z,-5.70
2023-02-16T15:46:23.386Z,-5.73
2023-02-16T15:48:51.102Z,-5.79
2023-02-16T15:51:25.476Z,-5.85
2023-02-16T15:54:00.149Z,-5.98
2023-02-16T15:56:45.006Z,-6.12
2023-02-16T15:59:32.917Z,-6.28
2023-02-16T16:02:10.179Z,-6.40
2023-02-16T16:04:40.063Z,-6.48
2023-02-16T16:07:08.857Z,-6.50
2023-02-16T16:09:38.998Z,-6.56
2023-02-16T16:12:08.741Z,-6.63
2023-02-16T16:14:38.824Z,-6.75
2023-02-16T16:17:06.041Z,-6.89
2023-02-16T16:19:35.948Z,-7.01
2023-02-16T16:22:05.412Z,-7.07
2023-02-16T16:24:38.346Z,-7.20
2023-02-16T16:27:11.977Z,-7.18
2023-02-16T16:29:47.623Z,-7.28
2023-02-16T16:32:27.116Z,-7.42
2023-02-16T16:34:54.539Z,-7.42
2023-02-16T16:37:26.829Z,-7.51
2023-02-16T16:40:06.216Z,-7.57
2023-02-16T16:42:34.204Z,-7.61
2023-02-16T16:45:07.986Z,-7.69
2023-02-16T16:47:40.379Z,-7.70
2023-02-16T16:50:15.079Z,-7.75
2023-02-16T16:52:46.311Z,-7.74
2023-02-16T16:55:19.585Z,-7.81
2023-02-16T16:57:50.672Z,-7.89
2023-02-16T17:00:18.504Z,-7.92
2023-02-16T17:02:45.888Z,-7.98
2023-02-16T17:05:13.138Z,-8.00
2023-02-16T17:07:40.187Z,-7.89
2023-02-16T17:10:11.442Z,-7.75
2023-02-16T17:12:41.602Z,-7.50
2023-02-16T17:15:20.130Z,-7.34
2023-02-16T17:17:49.008Z,-7.23
2023-02-16T17:20:27.273Z,-7.10
2023-02-16T17:22:54.601Z,-7.08
2023-02-16T17:25:21.719Z,-7.03
2023-02-16T17:27:49.129Z,-6.98
2023-02-16T17:30:19.392Z,-7.02
2023-02-16T17:32:47.087Z,-6.94
2023-02-16T17:35:17.121Z,-6.99
2023-02-16T17:37:44.320Z,-6.93
2023-02-16T17:40:20.542Z,-6.96
2023-02-16T17:42:50.189Z,-6.99
2023-02-16T17:45:19.714Z,-6.94
2023-02-16T17:47:52.544Z,-6.89
2023-02-16T17:50:26.267Z,-6.85
2023-02-16T17:52:57.481Z,-6.82
2023-02-16T17:55:24.872Z,-6.90
2023-02-16T17:57:52.082Z,-6.94
2023-02-16T18:00:21.246Z,-7.01
2023-02-16T18:02:48.360Z,-7.04
2023-02-16T18:05:16.548Z,-7.05
2023-02-16T18:07:46.786Z,-7.09
2023-02-16T18:10:22.884Z,-7.17
2023-02-16T18:12:49.873Z,-7.32
2023-02-16T18:15:17.391Z,-7.47
2023-02-16T18:17:44.712Z,-7.61
2023-02-16T18:20:16.505Z,-7.72
2023-02-16T18:22:43.682Z,-7.70
2023-02-16T18:25:10.648Z,-7.76
2023-02-16T18:27:41.857Z,-7.89
2023-02-16T18:30:10.228Z,-8.05
2023-02-16T18:32:37.591Z,-8.21
2023-02-16T18:35:06.027Z,-8.36
2023-02-16T18:37:39.617Z,-8.52
2023-02-16T18:40:10.918Z,-8.53
2023-02-16T18:42:38.917Z,-8.55
2023-02-16T18:45:06.282Z,-8.49
2023-02-16T18:47:37.397Z,-8.52
2023-02-16T18:50:09.047Z,-8.43
2023-02-16T18:52:39.449Z,-8.39
2023-02-16T18:55:07.290Z,-8.33
2023-02-16T18:57:37.187Z,-8.27
2023-02-16T19:00:09.353Z,-8.34
2023-02-16T19:02:41.098Z,-8.41
2023-02-16T19:05:10.544Z,-8.35
2023-02-16T19:07:40.120Z,-8.34
2023-02-16T19:10:10.491Z,-8.34
2023-02-16T19:12:39.569Z,-8.26
2023-02-16T19:15:07.926Z,-8.21
2023-02-16T19:17:35.264Z,-8.21
2023-02-16T19:20:05.289Z,-8.16
2023-02-16T19:22:36.910Z,-8.17
2023-02-16T19:25:06.043Z,-8.30
2023-02-16T19:27:33.943Z,-8.31
2023-02-16T19:30:01.163Z,-8.37
2023-02-16T19:32:30.896Z,-8.39
2023-02-16T19:34:59.183Z,-8.41
2023-02-16T19:37:26.157Z,-8.39
2023-02-16T19:39:53.105Z,-8.35
2023-02-16T19:42:23.897Z,-8.36
2023-02-16T19:44:51.641Z,-8.38
2023-02-16T19:47:18.730Z,-8.40
2023-02-16T19:49:50.472Z,-8.44
2023-02-16T19:52:17.755Z,-8.44
2023-02-16T19:54:44.887Z,-8.47
2023-02-16T19:57:11.879Z,-8.56
2023-02-16T19:59:38.813Z,-8.63
2023-02-16T20:02:08.372Z,-8.63
2023-02-16T20:04:35.443Z,-8.57
2023-02-16T20:07:04.888Z,-8.52
2023-02-16T20:09:33.155Z,-8.49
2023-02-16T20:12:00.141Z,-8.51
2023-02-16T20:14:27.083Z,-8.50
2023-02-16T20:17:03.340Z,-8.47
2023-02-16T20:19:30.413Z,-8.45
2023-02-16T20:21:57.569Z,-8.42
2023-02-16T20:24:24.524Z,-8.40
2023-02-16T20:26:52.231Z,-8.41
2023-02-16T20:29:20.984Z,-8.47
2023-02-16T20:31:53.801Z,-8.55
2023-02-16T20:34:21.134Z,-8.51
2023-02-16T20:36:48.172Z,-8.52
2023-02-16T20:39:15.660Z,-8.48
2023-02-16T20:41:42.942Z,-8.49
2023-02-16T20:44:10.212Z,-8.42
2023-02-16T20:46:38.504Z,-8.35
2023-02-16T20:49:07.221Z,-8.33
2023-02-16T20:51:34.677Z,-8.36
2023-02-16T20:54:02.771Z,-8.51
2023-02-16T20:56:29.983Z,-8.65
2023-02-16T20:58:57.814Z,-8.83
2023-02-16T21:01:37.588Z,-9.02
2023-02-16T21:04:07.418Z,-9.22
2023-02-16T21:06:36.314Z,-9.40
2023-02-16T21:09:04.556Z,-9.56
2023-02-16T21:11:32.260Z,-9.67
2023-02-16T21:14:02.326Z,-9.64
2023-02-16T21:16:29.671Z,-9.68
2023-02-16T21:18:56.978Z,-9.71
2023-02-16T21:21:24.592Z,-9.69
2023-02-16T21:23:53.886Z,-9.70
2023-02-16T21:26:23.614Z,-9.47
2023-02-16T21:28:50.675Z,-9.30
2023-02-16T21:31:21.691Z,-9.06
2023-02-16T21:33:49.268Z,-9.02
2023-02-16T21:36:19.887Z,-8.90
2023-02-16T21:38:47.254Z,-8.88
2023-02-16T21:41:28.674Z,-8.90
2023-02-16T21:44:04.057Z,-8.92
2023-02-16T21:46:33.617Z,-8.83
2023-02-16T21:49:02.655Z,-8.86
2023-02-16T21:51:32.985Z,-9.03
2023-02-16T21:54:00.942Z,-8.97
2023-02-16T21:56:35.398Z,-9.03
2023-02-16T21:59:03.684Z,-9.15
2023-02-16T22:01:33.815Z,-9.23
2023-02-16T22:04:02.526Z,-9.27
2023-02-16T22:06:35.151Z,-9.32
2023-02-16T22:09:06.123Z,-9.20
2023-02-16T22:11:33.480Z,-9.26
2023-02-16T22:14:01.397Z,-9.23
2023-02-16T22:16:30.333Z,-9.27
2023-02-16T22:19:04.063Z,-9.18
2023-02-16T22:21:32.218Z,-9.07
2023-02-16T22:24:00.853Z,-9.05
2023-02-16T22:26:32.008Z,-9.20
2023-02-16T22:28:59.198Z,-9.13
2023-02-16T22:31:27.515Z,-9.12
2023-02-16T22:33:57.650Z,-9.02
2023-02-16T22:36:25.727Z,-8.95
2023-02-16T22:38:53.590Z,-8.92
2023-02-16T22:41:21.253Z,-8.89
2023-02-16T22:43:48.573Z,-8.89
2023-02-16T22:46:19.771Z,-8.90
2023-02-16T22:48:49.778Z,-8.84
2023-02-16T22:51:18.064Z,-8.84
2023-02-16T22:53:46.003Z,-8.83
2023-02-16T22:56:17.376Z,-8.92
2023-02-16T22:58:45.067Z,-8.91
2023-02-16T23:01:17.727Z,-8.89
2023-02-16T23:03:50.039Z,-8.93
2023-02-16T23:06:19.298Z,-8.93
2023-02-16T23:08:47.100Z,-9.00
2023-02-16T23:11:14.332Z,-8.94
2023-02-16T23:13:41.361Z,-8.99
2023-02-16T23:16:11.836Z,-9.10
2023-02-16T23:18:39.133Z,-9.15
2023-02-16T23:21:18.856Z,-9.17
2023-02-16T23:23:47.195Z,-9.20
2023-02-16T23:26:14.403Z,-9.14
2023-02-16T23:28:42.134Z,-9.25
2023-02-16T23:31:10.277Z,-9.26
2023-02-16T23:33:37.284Z,-9.36
2023-02-16T23:36:04.842Z,-9.40
2023-02-16T23:38:32.211Z,-9.52
2023-02-16T23:41:08.299Z,-9.62
2023-02-16T23:43:35.768Z,-9.69
2023-02-16T23:46:06.217Z,-9.73
2023-02-16T23:48:33.551Z,-9.76
2023-02-16T23:51:00.546Z,-9.75
2023-02-16T23:53:28.371Z,-9.72
2023-02-16T23:56:06.740Z,-9.65
2023-02-16T23:58:36.982Z,-9.58
